METAR AND TAF INFORMATION
METAR FOR KCGF
ADDS - METARS form results

(1202 UTC 21 February 2019)
Data provider http://aviationweather.gov/metar/data/
 
METAR text: KCGF 211145Z 26011KT 10SM OVC020 02/M03 A3001
Conditions at: KCGF (CLEVLND/CUYAHOGA, OH, US) observed 1145 UTC 21 February 2019
Temperature: 2.0°C (36°F)
Dewpoint: -3.0°C (27°F) [RH = 69%]
Pressure (altimeter): 30.01 inches Hg (1016.3 mb)
Winds: from the W (260 degrees) at 13 MPH (11 knots; 5.7 m/s)
Visibility: 10 or more miles (16+ km)
Ceiling: 2000 feet AGL
Clouds: overcast cloud deck at 2000 feet AGL
Weather: no significant weather observed at this time

 AIRPORT MAP

 RUNWAY INFORMATION
Runway 06 Runway length 5102 ft Runway width 100 ft
Runway elevation 873 ft Runway displaced threshold 0 ft Runway heading 50
Runway 24 Runway length 5102 ft Runway width 100 ft
Runway elevation 879 ft Runway displaced threshold 0 ft Runway heading 230

 AIRPORT FREQUENCIES
Type A/D Name CLEVELAND Frequency 125.35 MHZ
Type CTAF Name CTAF Frequency 118.5 MHZ
Type GCCD Name GND/CLNC D Frequency 121.85 MHZ
Type TWR Name COUNTY TWR Frequency 118.5 MHZ
Type UNIC Name UNICOM Frequency 122.95 MHZ

 AIRPORT NEAR NAVIGATION AIDS
Type VOR-DME Name Chardon Frequency 112700 KHZ
Type NDB Name Hogaf Frequency 521 KHZ



Powered by Virtual Airlines Manager [[v2.6.2]]